createdAt,value
2019-05-15T00:00:02.842Z,5.7
2019-05-15T00:15:02.591Z,5.8
2019-05-15T00:30:02.827Z,5.6
2019-05-15T00:45:03.198Z,5.6
2019-05-15T01:00:03.429Z,5.6
2019-05-15T01:15:02.817Z,5.6
2019-05-15T01:30:02.718Z,5.6
2019-05-15T01:45:02.725Z,5.6
2019-05-15T02:00:03.326Z,5.6
2019-05-15T02:15:03.359Z,5.6
2019-05-15T02:30:17.729Z,5.5
2019-05-15T02:45:02.783Z,5.5
2019-05-15T03:00:02.717Z,5.5
2019-05-15T03:15:03.089Z,5.6
2019-05-15T03:30:02.594Z,5.7
2019-05-15T03:45:03.303Z,5.7
2019-05-15T04:00:02.914Z,5.8
2019-05-15T04:15:03.302Z,5.6
2019-05-15T04:30:02.837Z,5.6
2019-05-15T04:45:03.003Z,5.6
2019-05-15T05:00:02.991Z,5.6
2019-05-15T05:15:03.285Z,5.6
2019-05-15T05:30:03.201Z,5.7
2019-05-15T05:45:03.185Z,5.6
2019-05-15T06:00:03.050Z,5.6
2019-05-15T06:15:02.657Z,5.8
2019-05-15T06:30:02.482Z,5.8
2019-05-15T06:45:03.289Z,5.8
2019-05-15T07:00:02.730Z,6
2019-05-15T07:15:03.056Z,5.8
2019-05-15T07:30:02.933Z,5.9
2019-05-15T07:45:03.383Z,5.9
2019-05-15T08:00:02.899Z,5.9
2019-05-15T08:15:02.907Z,6.1
2019-05-15T08:30:02.615Z,6.6
2019-05-15T08:45:03.373Z,6.4
2019-05-15T09:00:02.812Z,6.6
2019-05-15T09:15:03.112Z,6.8
2019-05-15T09:30:03.483Z,7
2019-05-15T09:45:03.322Z,7.2
2019-05-15T10:00:02.586Z,7.2
2019-05-15T10:15:02.516Z,7.8
2019-05-15T10:30:02.991Z,7.8
2019-05-15T10:45:02.651Z,8.2
2019-05-15T11:00:02.988Z,8.4
2019-05-15T11:15:02.486Z,8.8
2019-05-15T11:30:02.730Z,9.3
2019-05-15T11:45:03.303Z,9.2
2019-05-15T12:00:03.876Z,9.4
2019-05-15T12:15:02.576Z,9.4
2019-05-15T12:30:03.955Z,9.8
2019-05-15T13:00:02.982Z,10.3
2019-05-15T13:15:02.507Z,9.8
2019-05-15T13:30:02.905Z,9.6
2019-05-15T13:45:02.661Z,9.4
2019-05-15T14:00:03.147Z,9.4
2019-05-15T14:15:03.191Z,9.4
2019-05-15T14:30:02.749Z,9.4
2019-05-15T14:45:02.580Z,9.2
2019-05-15T15:00:03.310Z,9.1
2019-05-15T15:15:02.525Z,8.9
2019-05-15T15:30:02.891Z,8.9
2019-05-15T15:45:02.744Z,8.6
2019-05-15T16:00:02.654Z,8.3
2019-05-15T16:15:03.368Z,8.4
2019-05-15T16:30:02.655Z,8.4
2019-05-15T16:45:02.934Z,8.2
2019-05-15T17:00:03.116Z,8.2
2019-05-15T17:15:02.986Z,8.3
2019-05-15T17:30:03.174Z,8.1
2019-05-15T17:45:02.984Z,7.7
2019-05-15T18:00:03.056Z,7.4
2019-05-15T18:15:03.122Z,7.2
2019-05-15T18:30:02.823Z,7.2
2019-05-15T18:45:02.650Z,7.1
2019-05-15T19:00:02.897Z,7
2019-05-15T19:15:03.362Z,6.9
2019-05-15T19:30:02.969Z,6.9
2019-05-15T19:45:02.903Z,6.8
2019-05-15T20:00:03.135Z,6.6
2019-05-15T20:15:03.140Z,6.6
2019-05-15T20:30:02.904Z,6.6
2019-05-15T20:45:03.252Z,6.4
2019-05-15T21:00:03.339Z,6.4
2019-05-15T21:15:02.652Z,6.4
2019-05-15T21:30:03.289Z,6.4
2019-05-15T21:45:02.731Z,6.4
2019-05-15T22:00:02.953Z,6.3
2019-05-15T22:15:03.372Z,6.3
2019-05-15T22:30:02.737Z,6.3
2019-05-15T22:45:03.110Z,6.2
2019-05-15T23:00:02.878Z,6.2
2019-05-15T23:15:03.221Z,6.2
2019-05-15T23:30:03.289Z,6.2
2019-05-15T23:45:02.670Z,6.2
